sensor_id;sensor_type;location;lat;lon;timestamp;P1;durP1;ratioP1;P2;durP2;ratioP2
20557;SDS011;10437;48.156;11.530;2023-04-03T00:00:45;8.23;;;5.00;;
20557;SDS011;10437;48.156;11.530;2023-04-03T00:03:14;10.77;;;5.20;;
20557;SDS011;10437;48.156;11.530;2023-04-03T00:05:41;8.80;;;4.70;;
20557;SDS011;10437;48.156;11.530;2023-04-03T00:08:10;9.63;;;5.13;;
20557;SDS011;10437;48.156;11.530;2023-04-03T00:10:36;7.60;;;4.90;;
20557;SDS011;10437;48.156;11.530;2023-04-03T00:13:04;9.70;;;5.20;;
20557;SDS011;10437;48.156;11.530;2023-04-03T00:15:31;7.60;;;4.70;;
20557;SDS011;10437;48.156;11.530;2023-04-03T00:17:58;9.17;;;4.70;;
20557;SDS011;10437;48.156;11.530;2023-04-03T00:20:26;8.90;;;4.60;;
20557;SDS011;10437;48.156;11.530;2023-04-03T00:22:53;9.53;;;5.07;;
20557;SDS011;10437;48.156;11.530;2023-04-03T00:25:21;6.97;;;4.33;;
20557;SDS011;10437;48.156;11.530;2023-04-03T00:27:48;8.93;;;4.87;;
20557;SDS011;10437;48.156;11.530;2023-04-03T00:30:16;9.57;;;5.10;;
20557;SDS011;10437;48.156;11.530;2023-04-03T00:32:45;12.27;;;5.23;;
20557;SDS011;10437;48.156;11.530;2023-04-03T00:35:12;6.93;;;4.37;;
20557;SDS011;10437;48.156;11.530;2023-04-03T00:37:40;7.13;;;4.70;;
20557;SDS011;10437;48.156;11.530;2023-04-03T00:40:08;10.80;;;4.57;;
20557;SDS011;10437;48.156;11.530;2023-04-03T00:42:37;11.23;;;4.70;;
20557;SDS011;10437;48.156;11.530;2023-04-03T00:45:25;6.70;;;4.33;;
20557;SDS011;10437;48.156;11.530;2023-04-03T00:47:55;8.77;;;4.53;;
20557;SDS011;10437;48.156;11.530;2023-04-03T00:50:24;9.70;;;5.03;;
20557;SDS011;10437;48.156;11.530;2023-04-03T00:52:52;8.90;;;4.67;;
20557;SDS011;10437;48.156;11.530;2023-04-03T00:55:19;7.77;;;4.50;;
20557;SDS011;10437;48.156;11.530;2023-04-03T00:57:48;6.90;;;4.57;;
20557;SDS011;10437;48.156;11.530;2023-04-03T01:00:16;9.53;;;4.53;;
20557;SDS011;10437;48.156;11.530;2023-04-03T01:02:47;6.37;;;4.27;;
20557;SDS011;10437;48.156;11.530;2023-04-03T01:05:14;9.50;;;4.57;;
20557;SDS011;10437;48.156;11.530;2023-04-03T01:07:42;6.50;;;4.20;;
20557;SDS011;10437;48.156;11.530;2023-04-03T01:10:10;9.93;;;4.73;;
20557;SDS011;10437;48.156;11.530;2023-04-03T01:12:39;9.07;;;4.50;;
20557;SDS011;10437;48.156;11.530;2023-04-03T01:15:10;9.77;;;4.20;;
20557;SDS011;10437;48.156;11.530;2023-04-03T01:17:41;7.20;;;4.20;;
20557;SDS011;10437;48.156;11.530;2023-04-03T01:23:22;9.10;;;4.50;;
20557;SDS011;10437;48.156;11.530;2023-04-03T01:25:52;8.07;;;4.07;;
20557;SDS011;10437;48.156;11.530;2023-04-03T01:28:21;6.63;;;4.33;;
20557;SDS011;10437;48.156;11.530;2023-04-03T01:30:50;7.10;;;3.90;;
20557;SDS011;10437;48.156;11.530;2023-04-03T01:33:25;8.63;;;4.53;;
20557;SDS011;10437;48.156;11.530;2023-04-03T01:35:52;6.83;;;4.47;;
20557;SDS011;10437;48.156;11.530;2023-04-03T01:38:19;7.90;;;4.43;;
20557;SDS011;10437;48.156;11.530;2023-04-03T01:40:46;7.20;;;4.13;;
20557;SDS011;10437;48.156;11.530;2023-04-03T01:43:13;8.70;;;4.40;;
20557;SDS011;10437;48.156;11.530;2023-04-03T01:45:41;10.13;;;4.23;;
20557;SDS011;10437;48.156;11.530;2023-04-03T01:48:08;7.90;;;4.20;;
20557;SDS011;10437;48.156;11.530;2023-04-03T01:50:36;9.47;;;3.93;;
20557;SDS011;10437;48.156;11.530;2023-04-03T01:53:03;9.50;;;4.37;;
20557;SDS011;10437;48.156;11.530;2023-04-03T01:55:30;7.07;;;3.93;;
20557;SDS011;10437;48.156;11.530;2023-04-03T01:57:57;8.67;;;4.20;;
20557;SDS011;10437;48.156;11.530;2023-04-03T02:00:24;6.40;;;4.10;;
20557;SDS011;10437;48.156;11.530;2023-04-03T02:02:52;6.70;;;3.90;;
20557;SDS011;10437;48.156;11.530;2023-04-03T02:05:19;7.57;;;4.57;;
20557;SDS011;10437;48.156;11.530;2023-04-03T02:07:48;8.23;;;4.30;;
20557;SDS011;10437;48.156;11.530;2023-04-03T02:10:15;7.50;;;4.33;;
20557;SDS011;10437;48.156;11.530;2023-04-03T02:12:42;5.93;;;3.80;;
20557;SDS011;10437;48.156;11.530;2023-04-03T02:15:09;7.33;;;4.20;;
20557;SDS011;10437;48.156;11.530;2023-04-03T02:17:36;6.50;;;4.10;;
20557;SDS011;10437;48.156;11.530;2023-04-03T02:20:04;8.30;;;4.50;;
20557;SDS011;10437;48.156;11.530;2023-04-03T02:22:31;8.13;;;4.13;;
20557;SDS011;10437;48.156;11.530;2023-04-03T02:25:00;6.57;;;3.90;;
20557;SDS011;10437;48.156;11.530;2023-04-03T02:27:26;6.00;;;3.73;;
20557;SDS011;10437;48.156;11.530;2023-04-03T02:29:54;7.63;;;3.97;;
20557;SDS011;10437;48.156;11.530;2023-04-03T02:32:21;8.40;;;3.83;;
20557;SDS011;10437;48.156;11.530;2023-04-03T02:34:48;7.43;;;3.77;;
20557;SDS011;10437;48.156;11.530;2023-04-03T02:37:15;8.73;;;3.67;;
20557;SDS011;10437;48.156;11.530;2023-04-03T02:39:42;7.43;;;3.90;;
20557;SDS011;10437;48.156;11.530;2023-04-03T02:42:11;6.77;;;3.47;;
20557;SDS011;10437;48.156;11.530;2023-04-03T02:44:38;5.37;;;3.37;;
20557;SDS011;10437;48.156;11.530;2023-04-03T02:47:05;5.07;;;3.40;;
20557;SDS011;10437;48.156;11.530;2023-04-03T02:49:32;6.73;;;3.53;;
20557;SDS011;10437;48.156;11.530;2023-04-03T02:51:59;5.53;;;3.37;;
20557;SDS011;10437;48.156;11.530;2023-04-03T02:54:26;5.73;;;3.63;;
20557;SDS011;10437;48.156;11.530;2023-04-03T02:56:55;6.67;;;3.57;;
20557;SDS011;10437;48.156;11.530;2023-04-03T02:59:24;6.03;;;3.60;;
20557;SDS011;10437;48.156;11.530;2023-04-03T03:01:50;5.23;;;3.23;;
20557;SDS011;10437;48.156;11.530;2023-04-03T03:04:18;5.93;;;3.17;;
20557;SDS011;10437;48.156;11.530;2023-04-03T03:06:45;6.57;;;3.40;;
20557;SDS011;10437;48.156;11.530;2023-04-03T03:09:12;5.80;;;3.23;;
20557;SDS011;10437;48.156;11.530;2023-04-03T03:11:40;6.07;;;3.00;;
20557;SDS011;10437;48.156;11.530;2023-04-03T03:14:07;4.97;;;3.20;;
20557;SDS011;10437;48.156;11.530;2023-04-03T03:16:35;5.00;;;2.80;;
20557;SDS011;10437;48.156;11.530;2023-04-03T03:19:02;5.50;;;2.87;;
20557;SDS011;10437;48.156;11.530;2023-04-03T03:21:29;4.30;;;2.90;;
20557;SDS011;10437;48.156;11.530;2023-04-03T03:23:56;6.20;;;3.40;;
20557;SDS011;10437;48.156;11.530;2023-04-03T03:26:24;7.23;;;3.30;;
20557;SDS011;10437;48.156;11.530;2023-04-03T03:28:51;4.37;;;2.90;;
20557;SDS011;10437;48.156;11.530;2023-04-03T03:31:18;7.83;;;2.97;;
20557;SDS011;10437;48.156;11.530;2023-04-03T03:33:47;6.07;;;3.40;;
20557;SDS011;10437;48.156;11.530;2023-04-03T03:36:13;6.00;;;3.10;;
20557;SDS011;10437;48.156;11.530;2023-04-03T03:38:41;7.00;;;3.20;;
20557;SDS011;10437;48.156;11.530;2023-04-03T03:41:08;9.57;;;3.10;;
20557;SDS011;10437;48.156;11.530;2023-04-03T03:43:35;4.90;;;2.93;;
20557;SDS011;10437;48.156;11.530;2023-04-03T03:46:02;4.53;;;2.87;;
20557;SDS011;10437;48.156;11.530;2023-04-03T03:48:29;4.63;;;2.90;;
20557;SDS011;10437;48.156;11.530;2023-04-03T03:50:57;5.43;;;2.83;;
20557;SDS011;10437;48.156;11.530;2023-04-03T03:53:24;4.90;;;2.90;;
20557;SDS011;10437;48.156;11.530;2023-04-03T03:55:51;4.87;;;2.73;;
20557;SDS011;10437;48.156;11.530;2023-04-03T03:58:18;6.97;;;2.93;;
20557;SDS011;10437;48.156;11.530;2023-04-03T04:00:46;5.80;;;2.70;;
20557;SDS011;10437;48.156;11.530;2023-04-03T04:03:13;4.67;;;3.00;;
20557;SDS011;10437;48.156;11.530;2023-04-03T04:05:40;4.17;;;2.73;;
20557;SDS011;10437;48.156;11.530;2023-04-03T04:08:09;3.80;;;2.63;;
20557;SDS011;10437;48.156;11.530;2023-04-03T04:10:36;5.27;;;3.00;;
20557;SDS011;10437;48.156;11.530;2023-04-03T04:13:04;4.10;;;2.53;;
20557;SDS011;10437;48.156;11.530;2023-04-03T04:15:31;4.70;;;2.80;;
20557;SDS011;10437;48.156;11.530;2023-04-03T04:17:58;3.73;;;2.43;;
20557;SDS011;10437;48.156;11.530;2023-04-03T04:20:25;4.77;;;2.57;;
20557;SDS011;10437;48.156;11.530;2023-04-03T04:22:53;3.83;;;2.47;;
20557;SDS011;10437;48.156;11.530;2023-04-03T04:25:21;5.03;;;2.70;;
20557;SDS011;10437;48.156;11.530;2023-04-03T04:27:48;6.20;;;2.80;;
20557;SDS011;10437;48.156;11.530;2023-04-03T04:30:17;4.13;;;2.73;;
20557;SDS011;10437;48.156;11.530;2023-04-03T04:32:44;6.07;;;3.00;;
20557;SDS011;10437;48.156;11.530;2023-04-03T04:35:11;6.77;;;2.80;;
20557;SDS011;10437;48.156;11.530;2023-04-03T04:37:38;4.57;;;2.83;;
20557;SDS011;10437;48.156;11.530;2023-04-03T04:40:06;6.83;;;3.10;;
20557;SDS011;10437;48.156;11.530;2023-04-03T04:42:35;4.60;;;2.60;;
20557;SDS011;10437;48.156;11.530;2023-04-03T04:45:02;3.77;;;2.60;;
20557;SDS011;10437;48.156;11.530;2023-04-03T04:47:29;4.50;;;2.57;;
20557;SDS011;10437;48.156;11.530;2023-04-03T04:49:56;4.33;;;2.77;;
20557;SDS011;10437;48.156;11.530;2023-04-03T04:52:23;6.30;;;2.93;;
20557;SDS011;10437;48.156;11.530;2023-04-03T04:54:50;4.33;;;2.57;;
20557;SDS011;10437;48.156;11.530;2023-04-03T04:57:18;7.03;;;2.93;;
20557;SDS011;10437;48.156;11.530;2023-04-03T04:59:46;5.33;;;2.97;;
20557;SDS011;10437;48.156;11.530;2023-04-03T05:02:13;5.47;;;3.03;;
20557;SDS011;10437;48.156;11.530;2023-04-03T05:04:40;8.83;;;3.17;;
20557;SDS011;10437;48.156;11.530;2023-04-03T05:07:07;6.07;;;3.00;;
20557;SDS011;10437;48.156;11.530;2023-04-03T05:09:34;6.03;;;3.30;;
20557;SDS011;10437;48.156;11.530;2023-04-03T05:12:02;4.93;;;3.00;;
20557;SDS011;10437;48.156;11.530;2023-04-03T05:14:29;6.00;;;3.43;;
20557;SDS011;10437;48.156;11.530;2023-04-03T05:16:57;4.73;;;2.77;;
20557;SDS011;10437;48.156;11.530;2023-04-03T05:19:24;7.10;;;3.03;;
20557;SDS011;10437;48.156;11.530;2023-04-03T05:21:51;5.10;;;2.83;;
20557;SDS011;10437;48.156;11.530;2023-04-03T05:24:18;4.63;;;2.57;;
20557;SDS011;10437;48.156;11.530;2023-04-03T05:26:45;5.53;;;3.07;;
20557;SDS011;10437;48.156;11.530;2023-04-03T05:29:13;6.17;;;3.03;;
20557;SDS011;10437;48.156;11.530;2023-04-03T05:31:40;7.23;;;3.00;;
20557;SDS011;10437;48.156;11.530;2023-04-03T05:34:08;5.73;;;2.80;;
20557;SDS011;10437;48.156;11.530;2023-04-03T05:36:35;5.50;;;3.10;;
20557;SDS011;10437;48.156;11.530;2023-04-03T05:39:02;5.67;;;2.90;;
20557;SDS011;10437;48.156;11.530;2023-04-03T05:41:30;5.90;;;3.00;;
20557;SDS011;10437;48.156;11.530;2023-04-03T05:43:57;4.23;;;2.80;;
20557;SDS011;10437;48.156;11.530;2023-04-03T05:46:24;7.23;;;3.43;;
20557;SDS011;10437;48.156;11.530;2023-04-03T05:48:51;5.57;;;3.17;;
20557;SDS011;10437;48.156;11.530;2023-04-03T05:51:22;10.53;;;2.93;;
20557;SDS011;10437;48.156;11.530;2023-04-03T05:53:51;5.13;;;2.63;;
20557;SDS011;10437;48.156;11.530;2023-04-03T05:56:21;6.07;;;3.20;;
20557;SDS011;10437;48.156;11.530;2023-04-03T05:58:48;5.87;;;3.17;;
20557;SDS011;10437;48.156;11.530;2023-04-03T06:01:15;5.53;;;3.00;;
20557;SDS011;10437;48.156;11.530;2023-04-03T06:03:42;6.90;;;3.00;;
20557;SDS011;10437;48.156;11.530;2023-04-03T06:06:11;7.23;;;3.27;;
20557;SDS011;10437;48.156;11.530;2023-04-03T06:08:40;8.57;;;3.43;;
20557;SDS011;10437;48.156;11.530;2023-04-03T06:11:08;5.80;;;3.13;;
20557;SDS011;10437;48.156;11.530;2023-04-03T06:13:35;7.07;;;3.50;;
20557;SDS011;10437;48.156;11.530;2023-04-03T06:16:03;6.63;;;3.03;;
20557;SDS011;10437;48.156;11.530;2023-04-03T06:18:30;6.77;;;3.10;;
20557;SDS011;10437;48.156;11.530;2023-04-03T06:20:57;7.37;;;2.90;;
20557;SDS011;10437;48.156;11.530;2023-04-03T06:23:25;5.97;;;3.37;;
20557;SDS011;10437;48.156;11.530;2023-04-03T06:25:54;5.00;;;3.00;;
20557;SDS011;10437;48.156;11.530;2023-04-03T06:28:21;5.67;;;2.80;;
20557;SDS011;10437;48.156;11.530;2023-04-03T06:30:48;5.90;;;2.90;;
20557;SDS011;10437;48.156;11.530;2023-04-03T06:33:15;5.73;;;3.10;;
20557;SDS011;10437;48.156;11.530;2023-04-03T06:35:42;9.27;;;3.07;;
20557;SDS011;10437;48.156;11.530;2023-04-03T06:38:09;9.00;;;3.07;;
20557;SDS011;10437;48.156;11.530;2023-04-03T06:40:36;6.27;;;3.50;;
20557;SDS011;10437;48.156;11.530;2023-04-03T06:43:05;6.07;;;3.50;;
20557;SDS011;10437;48.156;11.530;2023-04-03T06:45:32;4.33;;;2.77;;
20557;SDS011;10437;48.156;11.530;2023-04-03T06:47:59;4.80;;;2.83;;
20557;SDS011;10437;48.156;11.530;2023-04-03T06:50:26;9.03;;;3.50;;
20557;SDS011;10437;48.156;11.530;2023-04-03T06:52:53;4.77;;;2.60;;
20557;SDS011;10437;48.156;11.530;2023-04-03T06:55:21;5.23;;;3.10;;
20557;SDS011;10437;48.156;11.530;2023-04-03T06:57:48;6.80;;;3.17;;
20557;SDS011;10437;48.156;11.530;2023-04-03T07:00:17;6.97;;;3.43;;
20557;SDS011;10437;48.156;11.530;2023-04-03T07:02:45;5.00;;;3.10;;
20557;SDS011;10437;48.156;11.530;2023-04-03T07:05:12;7.10;;;2.80;;
20557;SDS011;10437;48.156;11.530;2023-04-03T07:07:39;7.47;;;3.10;;
20557;SDS011;10437;48.156;11.530;2023-04-03T07:10:07;5.30;;;2.93;;
20557;SDS011;10437;48.156;11.530;2023-04-03T07:12:35;5.67;;;2.83;;
20557;SDS011;10437;48.156;11.530;2023-04-03T07:15:02;4.93;;;3.20;;
20557;SDS011;10437;48.156;11.530;2023-04-03T07:17:32;5.40;;;3.37;;
20557;SDS011;10437;48.156;11.530;2023-04-03T07:19:59;5.40;;;2.80;;
20557;SDS011;10437;48.156;11.530;2023-04-03T07:22:26;4.60;;;2.80;;
20557;SDS011;10437;48.156;11.530;2023-04-03T07:24:53;4.23;;;2.80;;
20557;SDS011;10437;48.156;11.530;2023-04-03T07:27:20;4.93;;;3.00;;
20557;SDS011;10437;48.156;11.530;2023-04-03T07:29:47;6.03;;;3.33;;
20557;SDS011;10437;48.156;11.530;2023-04-03T07:32:14;5.33;;;3.10;;
20557;SDS011;10437;48.156;11.530;2023-04-03T07:34:43;7.67;;;3.07;;
20557;SDS011;10437;48.156;11.530;2023-04-03T07:37:11;8.53;;;3.47;;
20557;SDS011;10437;48.156;11.530;2023-04-03T07:39:38;5.90;;;3.23;;
20557;SDS011;10437;48.156;11.530;2023-04-03T07:42:05;7.17;;;3.37;;
20557;SDS011;10437;48.156;11.530;2023-04-03T07:44:33;4.67;;;3.30;;
20557;SDS011;10437;48.156;11.530;2023-04-03T07:47:00;6.53;;;2.80;;
20557;SDS011;10437;48.156;11.530;2023-04-03T07:49:27;4.37;;;2.53;;
20557;SDS011;10437;48.156;11.530;2023-04-03T07:51:56;6.40;;;2.77;;
20557;SDS011;10437;48.156;11.530;2023-04-03T07:54:23;6.37;;;3.53;;
20557;SDS011;10437;48.156;11.530;2023-04-03T07:56:50;9.07;;;3.67;;
20557;SDS011;10437;48.156;11.530;2023-04-03T07:59:18;8.50;;;4.23;;
20557;SDS011;10437;48.156;11.530;2023-04-03T08:01:45;6.50;;;3.70;;
20557;SDS011;10437;48.156;11.530;2023-04-03T08:04:12;6.00;;;3.50;;
20557;SDS011;10437;48.156;11.530;2023-04-03T08:06:39;7.73;;;3.43;;
20557;SDS011;10437;48.156;11.530;2023-04-03T08:09:08;4.90;;;3.40;;
20557;SDS011;10437;48.156;11.530;2023-04-03T08:11:35;9.50;;;3.63;;
20557;SDS011;10437;48.156;11.530;2023-04-03T08:14:02;5.73;;;3.30;;
20557;SDS011;10437;48.156;11.530;2023-04-03T08:16:29;8.30;;;3.60;;
20557;SDS011;10437;48.156;11.530;2023-04-03T08:18:56;7.00;;;3.97;;
20557;SDS011;10437;48.156;11.530;2023-04-03T08:21:24;8.50;;;3.93;;
20557;SDS011;10437;48.156;11.530;2023-04-03T08:23:51;7.40;;;3.83;;
20557;SDS011;10437;48.156;11.530;2023-04-03T08:26:20;8.40;;;4.47;;
20557;SDS011;10437;48.156;11.530;2023-04-03T08:28:47;9.27;;;4.47;;
20557;SDS011;10437;48.156;11.530;2023-04-03T08:31:16;9.00;;;4.57;;
20557;SDS011;10437;48.156;11.530;2023-04-03T08:33:45;7.40;;;4.67;;
20557;SDS011;10437;48.156;11.530;2023-04-03T08:36:16;8.50;;;4.10;;
20557;SDS011;10437;48.156;11.530;2023-04-03T08:38:44;7.00;;;4.00;;
20557;SDS011;10437;48.156;11.530;2023-04-03T08:41:13;6.80;;;4.13;;
20557;SDS011;10437;48.156;11.530;2023-04-03T08:43:47;7.13;;;3.67;;
20557;SDS011;10437;48.156;11.530;2023-04-03T08:46:26;6.40;;;3.77;;
20557;SDS011;10437;48.156;11.530;2023-04-03T08:48:58;8.23;;;3.67;;
20557;SDS011;10437;48.156;11.530;2023-04-03T08:51:26;8.97;;;3.90;;
20557;SDS011;10437;48.156;11.530;2023-04-03T08:53:54;8.57;;;4.23;;
20557;SDS011;10437;48.156;11.530;2023-04-03T08:56:25;8.23;;;4.03;;
20557;SDS011;10437;48.156;11.530;2023-04-03T08:58:55;6.40;;;3.77;;
20557;SDS011;10437;48.156;11.530;2023-04-03T09:01:23;7.77;;;3.63;;
20557;SDS011;10437;48.156;11.530;2023-04-03T09:03:53;6.67;;;3.80;;
20557;SDS011;10437;48.156;11.530;2023-04-03T09:06:21;5.37;;;3.77;;
20557;SDS011;10437;48.156;11.530;2023-04-03T09:08:50;6.23;;;3.67;;
20557;SDS011;10437;48.156;11.530;2023-04-03T09:11:20;6.70;;;3.40;;
20557;SDS011;10437;48.156;11.530;2023-04-03T09:13:54;7.07;;;3.83;;
20557;SDS011;10437;48.156;11.530;2023-04-03T09:16:28;5.20;;;3.50;;
20557;SDS011;10437;48.156;11.530;2023-04-03T09:19:07;5.27;;;3.33;;
20557;SDS011;10437;48.156;11.530;2023-04-03T09:21:42;6.07;;;3.20;;
20557;SDS011;10437;48.156;11.530;2023-04-03T09:24:10;6.03;;;3.60;;
20557;SDS011;10437;48.156;11.530;2023-04-03T09:26:40;6.60;;;3.93;;
20557;SDS011;10437;48.156;11.530;2023-04-03T09:29:14;4.70;;;3.30;;
20557;SDS011;10437;48.156;11.530;2023-04-03T09:31:43;6.83;;;3.50;;
20557;SDS011;10437;48.156;11.530;2023-04-03T09:34:20;5.30;;;3.57;;
20557;SDS011;10437;48.156;11.530;2023-04-03T09:36:48;6.73;;;3.50;;
20557;SDS011;10437;48.156;11.530;2023-04-03T09:39:17;5.30;;;3.57;;
20557;SDS011;10437;48.156;11.530;2023-04-03T09:41:56;6.33;;;3.23;;
20557;SDS011;10437;48.156;11.530;2023-04-03T09:44:28;8.05;;;4.10;;
20557;SDS011;10437;48.156;11.530;2023-04-03T09:46:56;6.10;;;3.37;;
20557;SDS011;10437;48.156;11.530;2023-04-03T09:49:23;9.07;;;3.47;;
20557;SDS011;10437;48.156;11.530;2023-04-03T09:51:51;6.00;;;3.70;;
20557;SDS011;10437;48.156;11.530;2023-04-03T09:54:26;6.87;;;3.73;;
20557;SDS011;10437;48.156;11.530;2023-04-03T09:56:58;5.83;;;3.73;;
20557;SDS011;10437;48.156;11.530;2023-04-03T09:59:31;8.00;;;3.90;;
20557;SDS011;10437;48.156;11.530;2023-04-03T10:01:59;6.70;;;3.87;;
20557;SDS011;10437;48.156;11.530;2023-04-03T10:04:36;10.03;;;3.90;;
20557;SDS011;10437;48.156;11.530;2023-04-03T10:07:03;8.20;;;3.97;;
20557;SDS011;10437;48.156;11.530;2023-04-03T10:09:31;7.37;;;4.10;;
20557;SDS011;10437;48.156;11.530;2023-04-03T10:12:00;6.43;;;3.23;;
20557;SDS011;10437;48.156;11.530;2023-04-03T10:14:29;5.97;;;3.40;;
20557;SDS011;10437;48.156;11.530;2023-04-03T10:16:59;4.13;;;3.10;;
20557;SDS011;10437;48.156;11.530;2023-04-03T10:19:37;7.70;;;3.63;;
20557;SDS011;10437;48.156;11.530;2023-04-03T10:22:09;6.23;;;3.90;;
20557;SDS011;10437;48.156;11.530;2023-04-03T10:24:43;6.90;;;3.77;;
20557;SDS011;10437;48.156;11.530;2023-04-03T10:27:13;6.67;;;3.37;;
20557;SDS011;10437;48.156;11.530;2023-04-03T10:29:53;11.00;;;3.80;;
20557;SDS011;10437;48.156;11.530;2023-04-03T10:32:26;7.77;;;3.40;;
20557;SDS011;10437;48.156;11.530;2023-04-03T10:35:08;8.03;;;3.67;;
20557;SDS011;10437;48.156;11.530;2023-04-03T10:37:46;6.17;;;3.30;;
20557;SDS011;10437;48.156;11.530;2023-04-03T10:40:21;5.43;;;3.50;;
20557;SDS011;10437;48.156;11.530;2023-04-03T10:42:52;5.37;;;2.93;;
20557;SDS011;10437;48.156;11.530;2023-04-03T10:45:24;8.00;;;3.23;;
20557;SDS011;10437;48.156;11.530;2023-04-03T10:47:58;8.10;;;3.30;;
20557;SDS011;10437;48.156;11.530;2023-04-03T10:50:38;5.53;;;2.93;;
20557;SDS011;10437;48.156;11.530;2023-04-03T10:53:16;5.67;;;2.50;;
20557;SDS011;10437;48.156;11.530;2023-04-03T10:55:46;6.83;;;2.60;;
20557;SDS011;10437;48.156;11.530;2023-04-03T10:58:18;6.40;;;2.90;;
20557;SDS011;10437;48.156;11.530;2023-04-03T11:00:51;9.70;;;2.80;;
20557;SDS011;10437;48.156;11.530;2023-04-03T11:03:26;4.80;;;2.60;;
20557;SDS011;10437;48.156;11.530;2023-04-03T11:05:54;3.70;;;2.30;;
20557;SDS011;10437;48.156;11.530;2023-04-03T11:08:24;4.70;;;2.53;;
20557;SDS011;10437;48.156;11.530;2023-04-03T11:10:52;5.23;;;2.30;;
20557;SDS011;10437;48.156;11.530;2023-04-03T11:13:24;6.53;;;3.27;;
20557;SDS011;10437;48.156;11.530;2023-04-03T11:15:53;7.90;;;2.73;;
20557;SDS011;10437;48.156;11.530;2023-04-03T11:18:21;4.47;;;2.00;;
20557;SDS011;10437;48.156;11.530;2023-04-03T11:20:56;2.70;;;1.90;;
20557;SDS011;10437;48.156;11.530;2023-04-03T11:23:28;9.77;;;2.67;;
20557;SDS011;10437;48.156;11.530;2023-04-03T11:26:04;5.83;;;2.63;;
20557;SDS011;10437;48.156;11.530;2023-04-03T11:28:38;5.60;;;2.63;;
20557;SDS011;10437;48.156;11.530;2023-04-03T11:31:09;4.57;;;2.33;;
20557;SDS011;10437;48.156;11.530;2023-04-03T11:33:44;8.03;;;3.13;;
20557;SDS011;10437;48.156;11.530;2023-04-03T11:36:22;5.40;;;2.10;;
20557;SDS011;10437;48.156;11.530;2023-04-03T11:38:52;5.03;;;2.47;;
20557;SDS011;10437;48.156;11.530;2023-04-03T11:41:24;3.63;;;2.30;;
20557;SDS011;10437;48.156;11.530;2023-04-03T11:43:57;5.53;;;2.03;;
20557;SDS011;10437;48.156;11.530;2023-04-03T11:58:23;4.80;;;2.40;;
20557;SDS011;10437;48.156;11.530;2023-04-03T12:00:52;5.13;;;2.07;;
20557;SDS011;10437;48.156;11.530;2023-04-03T12:03:29;3.13;;;1.67;;
20557;SDS011;10437;48.156;11.530;2023-04-03T12:05:58;3.70;;;1.67;;
20557;SDS011;10437;48.156;11.530;2023-04-03T12:09:04;3.03;;;1.43;;
20557;SDS011;10437;48.156;11.530;2023-04-03T12:11:49;4.90;;;1.60;;
20557;SDS011;10437;48.156;11.530;2023-04-03T12:14:18;2.63;;;1.57;;
20557;SDS011;10437;48.156;11.530;2023-04-03T12:16:47;3.10;;;1.47;;
20557;SDS011;10437;48.156;11.530;2023-04-03T12:22:11;2.13;;;1.27;;
20557;SDS011;10437;48.156;11.530;2023-04-03T12:24:40;3.70;;;1.60;;
20557;SDS011;10437;48.156;11.530;2023-04-03T12:27:18;3.00;;;1.57;;
20557;SDS011;10437;48.156;11.530;2023-04-03T12:29:47;3.77;;;1.70;;
20557;SDS011;10437;48.156;11.530;2023-04-03T12:32:20;2.80;;;1.60;;
20557;SDS011;10437;48.156;11.530;2023-04-03T12:34:56;3.87;;;1.33;;
20557;SDS011;10437;48.156;11.530;2023-04-03T12:40:43;3.20;;;1.20;;
20557;SDS011;10437;48.156;11.530;2023-04-03T12:43:34;3.13;;;1.37;;
20557;SDS011;10437;48.156;11.530;2023-04-03T12:46:04;3.23;;;1.50;;
20557;SDS011;10437;48.156;11.530;2023-04-03T12:48:46;2.27;;;1.30;;
20557;SDS011;10437;48.156;11.530;2023-04-03T12:51:16;2.30;;;1.20;;
20557;SDS011;10437;48.156;11.530;2023-04-03T12:53:45;2.83;;;1.10;;
20557;SDS011;10437;48.156;11.530;2023-04-03T12:56:19;3.70;;;1.50;;
20557;SDS011;10437;48.156;11.530;2023-04-03T12:58:50;3.10;;;1.43;;
20557;SDS011;10437;48.156;11.530;2023-04-03T13:01:18;3.50;;;1.10;;
20557;SDS011;10437;48.156;11.530;2023-04-03T13:03:48;3.30;;;1.20;;
20557;SDS011;10437;48.156;11.530;2023-04-03T13:06:17;3.73;;;1.60;;
20557;SDS011;10437;48.156;11.530;2023-04-03T13:08:49;3.20;;;1.40;;
20557;SDS011;10437;48.156;11.530;2023-04-03T13:11:16;4.30;;;1.47;;
20557;SDS011;10437;48.156;11.530;2023-04-03T13:13:54;2.97;;;1.20;;
20557;SDS011;10437;48.156;11.530;2023-04-03T13:16:22;3.13;;;1.50;;
20557;SDS011;10437;48.156;11.530;2023-04-03T13:18:50;3.57;;;1.57;;
20557;SDS011;10437;48.156;11.530;2023-04-03T13:21:18;3.33;;;1.40;;
20557;SDS011;10437;48.156;11.530;2023-04-03T13:23:47;4.10;;;1.47;;
20557;SDS011;10437;48.156;11.530;2023-04-03T13:26:16;3.53;;;1.70;;
20557;SDS011;10437;48.156;11.530;2023-04-03T13:28:44;4.47;;;1.50;;
20557;SDS011;10437;48.156;11.530;2023-04-03T13:31:18;1.73;;;1.30;;
20557;SDS011;10437;48.156;11.530;2023-04-03T13:33:52;1.77;;;1.40;;
20557;SDS011;10437;48.156;11.530;2023-04-03T13:36:22;3.53;;;1.53;;
20557;SDS011;10437;48.156;11.530;2023-04-03T13:39:03;2.30;;;1.33;;
20557;SDS011;10437;48.156;11.530;2023-04-03T13:41:33;2.97;;;1.50;;
20557;SDS011;10437;48.156;11.530;2023-04-03T13:44:17;4.90;;;1.67;;
20557;SDS011;10437;48.156;11.530;2023-04-03T13:46:53;1.80;;;1.17;;
20557;SDS011;10437;48.156;11.530;2023-04-03T13:49:22;3.00;;;1.33;;
20557;SDS011;10437;48.156;11.530;2023-04-03T13:51:57;3.90;;;1.80;;
20557;SDS011;10437;48.156;11.530;2023-04-03T13:54:25;9.90;;;1.90;;
20557;SDS011;10437;48.156;11.530;2023-04-03T13:56:58;3.73;;;1.80;;
20557;SDS011;10437;48.156;11.530;2023-04-03T13:59:27;4.37;;;1.43;;
20557;SDS011;10437;48.156;11.530;2023-04-03T14:02:09;2.93;;;1.30;;
20557;SDS011;10437;48.156;11.530;2023-04-03T14:04:44;4.37;;;1.30;;
20557;SDS011;10437;48.156;11.530;2023-04-03T14:07:15;1.50;;;1.17;;
20557;SDS011;10437;48.156;11.530;2023-04-03T14:09:45;2.10;;;1.10;;
20557;SDS011;10437;48.156;11.530;2023-04-03T14:12:13;2.10;;;1.03;;
20557;SDS011;10437;48.156;11.530;2023-04-03T14:14:43;5.77;;;1.60;;
20557;SDS011;10437;48.156;11.530;2023-04-03T14:17:13;3.73;;;1.77;;
20557;SDS011;10437;48.156;11.530;2023-04-03T14:19:41;6.73;;;1.60;;
20557;SDS011;10437;48.156;11.530;2023-04-03T14:22:11;2.40;;;1.20;;
20557;SDS011;10437;48.156;11.530;2023-04-03T14:24:39;4.43;;;1.60;;
20557;SDS011;10437;48.156;11.530;2023-04-03T14:27:11;3.10;;;1.30;;
20557;SDS011;10437;48.156;11.530;2023-04-03T14:29:41;4.10;;;1.57;;
20557;SDS011;10437;48.156;11.530;2023-04-03T14:32:11;2.83;;;1.20;;
20557;SDS011;10437;48.156;11.530;2023-04-03T14:34:39;2.80;;;1.57;;
20557;SDS011;10437;48.156;11.530;2023-04-03T14:37:09;2.27;;;1.20;;
20557;SDS011;10437;48.156;11.530;2023-04-03T14:39:38;2.80;;;1.27;;
20557;SDS011;10437;48.156;11.530;2023-04-03T14:42:05;1.10;;;0.93;;
20557;SDS011;10437;48.156;11.530;2023-04-03T14:44:33;2.13;;;1.37;;
20557;SDS011;10437;48.156;11.530;2023-04-03T14:47:00;4.60;;;1.43;;
20557;SDS011;10437;48.156;11.530;2023-04-03T14:49:29;3.90;;;1.53;;
20557;SDS011;10437;48.156;11.530;2023-04-03T14:51:56;2.43;;;1.20;;
20557;SDS011;10437;48.156;11.530;2023-04-03T14:54:24;1.33;;;1.10;;
20557;SDS011;10437;48.156;11.530;2023-04-03T14:56:53;2.07;;;1.10;;
20557;SDS011;10437;48.156;11.530;2023-04-03T14:59:21;2.57;;;1.40;;
20557;SDS011;10437;48.156;11.530;2023-04-03T15:01:48;1.40;;;1.00;;
20557;SDS011;10437;48.156;11.530;2023-04-03T15:04:16;2.30;;;0.90;;
20557;SDS011;10437;48.156;11.530;2023-04-03T15:06:46;2.17;;;0.93;;